Time;durP1;ratioP1;P1;durP2;ratioP2;P2;SDS_P1;SDS_P2;PMS_P1;PMS_P2;Temp;Humidity;BMP_temperature;BMP_pressure;BME280_temperature;BME280_humidity;BME280_pressure;Samples;Min_cycle;Max_cycle;Signal;HPM_P1;HPM_P2
2022/04/15 00:00:39;;;;;;;;;;;13.00;99.90;;;;;;5135339;27;19961;-76
2022/04/15 00:03:06;;;;;;;;;;;13.00;99.90;;;;;;5134797;27;19911;-76
2022/04/15 00:05:37;;;;;;;;;;;12.90;99.90;;;;;;5135175;27;20375;-76
2022/04/15 00:08:13;;;;;;;;;;;12.90;99.90;;;;;;5135237;27;19907;-76
2022/04/15 00:10:40;;;;;;;;;;;12.90;99.90;;;;;;5116952;27;20369;-75
2022/04/15 00:13:08;;;;;;;;;;;12.80;99.90;;;;;;5134844;27;19999;-76
2022/04/15 00:15:34;;;;;;;;;;;12.80;99.90;;;;;;5135169;27;20295;-75
2022/04/15 00:18:00;;;;;;;;;;;12.70;99.90;;;;;;5134504;27;20002;-76
2022/04/15 00:20:28;;;;;;;;;;;12.70;99.90;;;;;;5139312;27;19907;-77
2022/04/15 00:22:54;;;;;;;;;;;12.70;99.90;;;;;;5136001;27;19908;-76
2022/04/15 00:25:19;;;;;;;;;;;12.70;99.90;;;;;;5134673;27;20010;-76
2022/04/15 00:27:45;;;;;;;;;;;12.60;99.90;;;;;;5135481;27;19911;-75
2022/04/15 00:30:11;;;;;;;;;;;12.60;99.90;;;;;;5099202;27;20022;-77
2022/04/15 00:32:37;;;;;;;;;;;12.60;99.90;;;;;;5135052;27;20408;-76
2022/04/15 00:35:03;;;;;;;;;;;12.50;99.90;;;;;;5134301;27;20013;-76
2022/04/15 00:37:29;;;;;;;;;;;12.40;99.90;;;;;;5135332;27;19915;-76
2022/04/15 00:39:55;;;;;;;;;;;12.40;99.90;;;;;;5135366;27;19912;-77
2022/04/15 00:42:21;;;;;;;;;;;12.40;99.90;;;;;;5134285;27;19918;-75
2022/04/15 00:44:48;;;;;;;;;;;12.40;99.90;;;;;;5134996;27;19907;-75
2022/04/15 00:47:19;;;;;;;;;;;12.30;99.90;;;;;;5116289;27;19911;-75
2022/04/15 00:49:44;;;;;;;;;;;12.30;99.90;;;;;;5134759;27;19911;-76
2022/04/15 00:52:12;;;;;;;;;;;12.30;99.90;;;;;;5134316;27;19929;-76
2022/04/15 00:54:38;;;;;;;;;;;12.20;99.90;;;;;;5134631;27;19919;-75
2022/04/15 00:57:04;;;;;;;;;;;12.20;99.90;;;;;;5133971;27;20003;-75
2022/04/15 00:59:31;;;;;;;;;;;12.20;99.90;;;;;;5134732;27;20368;-76
2022/04/15 01:01:57;;;;;;;;;;;12.20;99.90;;;;;;5134644;27;19907;-76
2022/04/15 01:04:22;;;;;;;;;;;12.20;99.90;;;;;;5134110;27;20278;-75
2022/04/15 01:06:49;;;;;;;;;;;12.20;99.90;;;;;;5134562;27;19908;-75
2022/04/15 01:09:15;;;;;;;;;;;12.20;99.90;;;;;;5133991;27;19915;-75
2022/04/15 01:11:43;;;;;;;;;;;12.20;99.90;;;;;;5134205;27;19907;-76
2022/04/15 01:14:10;;;;;;;;;;;12.20;99.90;;;;;;5133714;27;19919;-75
2022/04/15 01:16:35;;;;;;;;;;;12.30;99.90;;;;;;5115833;27;19915;-75
2022/04/15 01:19:01;;;;;;;;;;;12.30;99.90;;;;;;5134033;27;19908;-76
2022/04/15 01:21:31;;;;;;;;;;;12.20;99.90;;;;;;5134196;27;19908;-76
2022/04/15 01:23:57;;;;;;;;;;;12.20;99.90;;;;;;5133827;27;19915;-76
2022/04/15 01:26:22;;;;;;;;;;;12.20;99.90;;;;;;5115476;27;19918;-75
2022/04/15 01:28:48;;;;;;;;;;;12.20;99.90;;;;;;5134123;27;19907;-76
2022/04/15 01:31:14;;;;;;;;;;;12.10;99.90;;;;;;5115113;27;19990;-76
2022/04/15 01:33:39;;;;;;;;;;;12.20;99.90;;;;;;5133909;27;19921;-75
2022/04/15 01:36:05;;;;;;;;;;;12.20;99.90;;;;;;5138002;27;19923;-76
2022/04/15 01:38:31;;;;;;;;;;;12.20;99.90;;;;;;5136936;27;19943;-75
2022/04/15 01:40:56;;;;;;;;;;;12.20;99.90;;;;;;5133703;27;19933;-76
2022/04/15 01:43:22;;;;;;;;;;;12.10;99.90;;;;;;5133536;27;19907;-76
2022/04/15 01:45:48;;;;;;;;;;;12.10;99.90;;;;;;5115705;27;19908;-76
2022/04/15 01:48:13;;;;;;;;;;;12.00;99.90;;;;;;5133040;27;19907;-76
2022/04/15 01:50:39;;;;;;;;;;;12.00;99.90;;;;;;5133686;27;19922;-76
2022/04/15 01:53:04;;;;;;;;;;;12.00;99.90;;;;;;5133537;27;19911;-75
2022/04/15 01:55:30;;;;;;;;;;;12.00;99.90;;;;;;5114317;28;19957;-76
2022/04/15 01:57:55;;;;;;;;;;;12.00;99.90;;;;;;5133687;28;19983;-76
2022/04/15 02:00:21;;;;;;;;;;;12.00;99.90;;;;;;5133564;28;19908;-76
2022/04/15 02:02:47;;;;;;;;;;;12.00;99.90;;;;;;5115353;28;19915;-76
2022/04/15 02:05:12;;;;;;;;;;;12.00;99.90;;;;;;5132998;28;19934;-76
2022/04/15 02:07:38;;;;;;;;;;;12.00;99.90;;;;;;5133303;27;19914;-76
2022/04/15 02:10:04;;;;;;;;;;;12.00;99.90;;;;;;5133305;28;19998;-76
2022/04/15 02:12:30;;;;;;;;;;;12.00;99.90;;;;;;5133752;28;19907;-76
2022/04/15 02:14:56;;;;;;;;;;;12.00;99.90;;;;;;5133625;28;20312;-76
2022/04/15 02:17:22;;;;;;;;;;;12.00;99.90;;;;;;5114405;28;19972;-76
2022/04/15 02:19:47;;;;;;;;;;;12.00;99.90;;;;;;5133556;27;20010;-76
2022/04/15 02:22:13;;;;;;;;;;;12.00;99.90;;;;;;5132880;28;19998;-76
2022/04/15 02:24:38;;;;;;;;;;;12.00;99.90;;;;;;5114763;28;19908;-76
2022/04/15 02:27:04;;;;;;;;;;;12.00;99.90;;;;;;5133255;28;19955;-76
2022/04/15 02:29:32;;;;;;;;;;;12.10;99.90;;;;;;5132607;28;19960;-76
2022/04/15 02:31:57;;;;;;;;;;;12.10;99.90;;;;;;5133510;28;20328;-76
2022/04/15 02:34:23;;;;;;;;;;;12.20;99.90;;;;;;5132662;28;19922;-76
2022/04/15 02:36:48;;;;;;;;;;;12.20;99.90;;;;;;5135290;27;19960;-76
2022/04/15 02:39:14;;;;;;;;;;;12.30;99.90;;;;;;5137410;27;19912;-76
2022/04/15 02:41:42;;;;;;;;;;;12.30;99.90;;;;;;5118319;27;19907;-76
2022/04/15 02:44:08;;;;;;;;;;;12.30;99.90;;;;;;5137674;27;20367;-76
2022/04/15 02:46:34;;;;;;;;;;;12.30;99.90;;;;;;5137112;27;19911;-76
2022/04/15 02:49:00;;;;;;;;;;;12.30;99.90;;;;;;5136932;27;19907;-77
2022/04/15 02:51:25;;;;;;;;;;;12.30;99.90;;;;;;5137433;27;19915;-75
2022/04/15 02:53:51;;;;;;;;;;;12.30;99.90;;;;;;5138896;27;19931;-76
2022/04/15 02:56:17;;;;;;;;;;;12.30;99.90;;;;;;5137276;27;19958;-76
2022/04/15 02:58:42;;;;;;;;;;;12.30;99.90;;;;;;5136952;27;20253;-76
2022/04/15 03:01:08;;;;;;;;;;;12.30;99.90;;;;;;5136602;27;19915;-76
2022/04/15 03:03:34;;;;;;;;;;;12.30;99.90;;;;;;5136035;27;19937;-76
2022/04/15 03:06:02;;;;;;;;;;;12.30;99.90;;;;;;5136767;27;19907;-76
2022/04/15 03:08:28;;;;;;;;;;;12.30;99.90;;;;;;5136132;27;19908;-76
2022/04/15 03:10:54;;;;;;;;;;;12.30;99.90;;;;;;5136486;27;20033;-77
2022/04/15 03:13:20;;;;;;;;;;;12.30;99.90;;;;;;5135921;27;19914;-76
2022/04/15 03:15:45;;;;;;;;;;;12.30;99.90;;;;;;5135900;27;20318;-77
2022/04/15 03:18:11;;;;;;;;;;;12.30;99.90;;;;;;5136470;27;19908;-76
2022/04/15 03:20:36;;;;;;;;;;;12.20;99.90;;;;;;5135632;27;19962;-76
2022/04/15 03:23:02;;;;;;;;;;;12.10;99.90;;;;;;5136636;27;19908;-76
2022/04/15 03:25:27;;;;;;;;;;;12.10;99.90;;;;;;5135701;27;20374;-76
2022/04/15 03:27:53;;;;;;;;;;;12.10;99.90;;;;;;5136239;27;19915;-76
2022/04/15 03:30:19;;;;;;;;;;;12.00;99.90;;;;;;5135904;27;19907;-76
2022/04/15 03:32:45;;;;;;;;;;;12.00;99.90;;;;;;5136384;27;19911;-76
2022/04/15 03:35:11;;;;;;;;;;;12.00;99.90;;;;;;5136114;27;19915;-76
2022/04/15 03:37:37;;;;;;;;;;;11.90;99.90;;;;;;5135402;27;19914;-76
2022/04/15 03:40:02;;;;;;;;;;;11.80;99.90;;;;;;5136605;27;20002;-76
2022/04/15 03:42:28;;;;;;;;;;;11.80;99.90;;;;;;5135682;27;20322;-76
2022/04/15 03:44:53;;;;;;;;;;;11.80;99.90;;;;;;5135865;27;19908;-76
2022/04/15 03:47:19;;;;;;;;;;;11.70;99.90;;;;;;5134879;27;19933;-76
2022/04/15 03:49:47;;;;;;;;;;;11.70;99.90;;;;;;5135954;27;20309;-76
2022/04/15 03:52:12;;;;;;;;;;;11.60;99.90;;;;;;5135820;27;19908;-76
2022/04/15 03:54:38;;;;;;;;;;;11.50;99.90;;;;;;5135278;27;19919;-76
2022/04/15 03:57:04;;;;;;;;;;;11.50;99.90;;;;;;5135506;27;19911;-76
2022/04/15 03:59:29;;;;;;;;;;;11.50;99.90;;;;;;5136167;27;19908;-76
2022/04/15 04:01:55;;;;;;;;;;;11.60;99.90;;;;;;5135773;27;19964;-76
2022/04/15 04:04:20;;;;;;;;;;;11.50;99.90;;;;;;5135568;27;20348;-76
2022/04/15 04:06:46;;;;;;;;;;;11.50;99.90;;;;;;5135719;27;19907;-76
2022/04/15 04:09:11;;;;;;;;;;;11.50;99.90;;;;;;5135384;27;20340;-76
2022/04/15 04:11:37;;;;;;;;;;;11.50;99.90;;;;;;5140784;27;19935;-76
2022/04/15 04:14:02;;;;;;;;;;;11.50;99.90;;;;;;5138771;27;19954;-77
2022/04/15 04:16:28;;;;;;;;;;;11.50;99.90;;;;;;5134769;27;19907;-76
2022/04/15 04:18:53;;;;;;;;;;;11.60;99.90;;;;;;5135616;27;20068;-76
2022/04/15 04:21:20;;;;;;;;;;;11.60;99.90;;;;;;5134921;27;19939;-76
2022/04/15 04:23:46;;;;;;;;;;;11.70;99.90;;;;;;5135242;27;20362;-76
2022/04/15 04:26:11;;;;;;;;;;;11.70;99.90;;;;;;5134966;27;19908;-76
2022/04/15 04:28:37;;;;;;;;;;;11.70;99.90;;;;;;5134791;27;19908;-76
2022/04/15 04:31:02;;;;;;;;;;;11.70;99.90;;;;;;5134998;27;20292;-76
2022/04/15 04:33:28;;;;;;;;;;;11.80;99.90;;;;;;5134373;27;20044;-76
2022/04/15 04:35:53;;;;;;;;;;;11.70;99.90;;;;;;5135074;27;19923;-76
2022/04/15 04:38:19;;;;;;;;;;;11.70;99.90;;;;;;5134441;27;20000;-76
2022/04/15 04:40:45;;;;;;;;;;;11.70;99.90;;;;;;5134971;27;19957;-76
2022/04/15 04:43:11;;;;;;;;;;;11.70;99.90;;;;;;5134684;27;20321;-76
2022/04/15 04:45:36;;;;;;;;;;;11.70;99.90;;;;;;5134432;27;19903;-75
2022/04/15 04:48:03;;;;;;;;;;;11.80;99.90;;;;;;5135009;27;19907;-74
2022/04/15 04:50:29;;;;;;;;;;;11.80;99.90;;;;;;5134299;27;19907;-74
2022/04/15 04:52:55;;;;;;;;;;;11.80;99.90;;;;;;5134470;27;19942;-75
2022/04/15 04:55:20;;;;;;;;;;;11.70;99.90;;;;;;5133845;27;19959;-74
2022/04/15 04:57:46;;;;;;;;;;;11.70;99.90;;;;;;5134527;27;19907;-75
2022/04/15 05:00:13;;;;;;;;;;;11.70;99.90;;;;;;5133880;27;20292;-75
2022/04/15 05:02:39;;;;;;;;;;;11.80;99.90;;;;;;5134051;27;20520;-75
2022/04/15 05:05:05;;;;;;;;;;;11.70;99.90;;;;;;5134621;27;19912;-75
2022/04/15 05:07:31;;;;;;;;;;;11.80;99.90;;;;;;5134054;27;19918;-75
2022/04/15 05:09:57;;;;;;;;;;;11.80;99.90;;;;;;5134553;27;20275;-75
2022/04/15 05:12:22;;;;;;;;;;;11.80;99.90;;;;;;5133778;27;20374;-75
2022/04/15 05:14:48;;;;;;;;;;;11.80;99.90;;;;;;5134257;27;19915;-75
2022/04/15 05:17:14;;;;;;;;;;;11.80;99.90;;;;;;5134044;27;19912;-75
2022/04/15 05:19:40;;;;;;;;;;;11.80;99.90;;;;;;5133177;27;19941;-75
2022/04/15 05:22:05;;;;;;;;;;;11.80;99.90;;;;;;5134238;27;20386;-75
2022/04/15 05:24:31;;;;;;;;;;;11.80;99.90;;;;;;5133463;27;19955;-75
2022/04/15 05:26:57;;;;;;;;;;;11.80;99.90;;;;;;5133671;27;19911;-75
2022/04/15 05:29:23;;;;;;;;;;;11.70;99.90;;;;;;5133438;27;19922;-76
2022/04/15 05:31:48;;;;;;;;;;;11.70;99.90;;;;;;5133853;27;19907;-76
2022/04/15 05:34:14;;;;;;;;;;;11.70;99.90;;;;;;5134107;27;19912;-76
2022/04/15 05:36:39;;;;;;;;;;;11.70;99.90;;;;;;5133473;27;19907;-76
2022/04/15 05:39:05;;;;;;;;;;;11.70;99.90;;;;;;5134058;27;19914;-75
2022/04/15 05:41:31;;;;;;;;;;;11.70;99.90;;;;;;5133132;27;19917;-75
2022/04/15 05:43:58;;;;;;;;;;;11.80;99.90;;;;;;5134112;27;19911;-75
2022/04/15 05:46:24;;;;;;;;;;;11.80;99.90;;;;;;5132924;27;20324;-74
2022/04/15 05:48:50;;;;;;;;;;;11.90;99.90;;;;;;5133496;27;19907;-75
2022/04/15 05:51:16;;;;;;;;;;;11.90;99.90;;;;;;5115132;27;20391;-75
2022/04/15 05:53:41;;;;;;;;;;;12.00;99.90;;;;;;5132634;27;19919;-75
2022/04/15 05:56:07;;;;;;;;;;;12.00;99.90;;;;;;5133545;27;20404;-76
2022/04/15 05:58:32;;;;;;;;;;;12.00;99.90;;;;;;5132981;28;19914;-76
2022/04/15 06:00:58;;;;;;;;;;;12.10;99.90;;;;;;5133655;28;19914;-76
2022/04/15 06:03:24;;;;;;;;;;;12.20;99.90;;;;;;5141862;28;20076;-75
2022/04/15 06:05:50;;;;;;;;;;;12.30;99.90;;;;;;5135302;28;19908;-76
2022/04/15 06:08:16;;;;;;;;;;;12.40;99.90;;;;;;5115033;28;20374;-76
2022/04/15 06:10:42;;;;;;;;;;;12.40;99.90;;;;;;5134185;27;19912;-76
2022/04/15 06:13:14;;;;;;;;;;;12.50;99.90;;;;;;5137913;27;20275;-76
2022/04/15 06:15:51;;;;;;;;;;;12.50;99.90;;;;;;5137261;27;19915;-75
2022/04/15 06:18:17;;;;;;;;;;;12.60;99.90;;;;;;5137985;27;19907;-75
2022/04/15 06:20:43;;;;;;;;;;;12.60;99.90;;;;;;5137167;27;19912;-75
2022/04/15 06:23:08;;;;;;;;;;;12.60;99.90;;;;;;5137061;27;19998;-76
2022/04/15 06:25:34;;;;;;;;;;;12.60;99.90;;;;;;5136846;27;19911;-76
2022/04/15 06:28:00;;;;;;;;;;;12.60;99.90;;;;;;5137310;27;19907;-76
2022/04/15 06:30:27;;;;;;;;;;;12.60;99.90;;;;;;5136923;27;19962;-76
2022/04/15 06:32:52;;;;;;;;;;;12.60;99.90;;;;;;5137526;27;19957;-76
2022/04/15 06:35:18;;;;;;;;;;;12.50;99.90;;;;;;5137411;27;19962;-76
2022/04/15 06:37:44;;;;;;;;;;;12.50;99.90;;;;;;5136778;27;19973;-77
2022/04/15 06:40:11;;;;;;;;;;;12.50;99.90;;;;;;5137163;27;20328;-76
2022/04/15 06:42:36;;;;;;;;;;;12.50;99.90;;;;;;5136766;27;20004;-76
2022/04/15 06:45:02;;;;;;;;;;;12.50;99.90;;;;;;5137494;27;19912;-77
2022/04/15 06:47:28;;;;;;;;;;;12.60;99.90;;;;;;5136850;27;19914;-76
2022/04/15 06:49:54;;;;;;;;;;;12.60;99.90;;;;;;5137106;27;19907;-76
2022/04/15 06:52:19;;;;;;;;;;;12.70;99.90;;;;;;5137038;27;19953;-76
2022/04/15 06:54:45;;;;;;;;;;;12.80;99.90;;;;;;5136031;27;19924;-76
2022/04/15 06:57:10;;;;;;;;;;;12.90;99.90;;;;;;5136954;27;20394;-76
2022/04/15 06:59:37;;;;;;;;;;;12.90;99.90;;;;;;5136280;27;19914;-76
2022/04/15 07:02:02;;;;;;;;;;;12.90;99.90;;;;;;5136717;27;20363;-75
2022/04/15 07:04:28;;;;;;;;;;;13.00;99.90;;;;;;5136293;27;19908;-76
2022/04/15 07:06:54;;;;;;;;;;;13.00;99.90;;;;;;5136766;27;20339;-76
2022/04/15 07:09:20;;;;;;;;;;;13.10;99.90;;;;;;5136485;27;19907;-76
2022/04/15 07:11:45;;;;;;;;;;;13.10;99.90;;;;;;5136000;27;19914;-76
2022/04/15 07:14:11;;;;;;;;;;;13.20;99.90;;;;;;5136264;27;19911;-77
2022/04/15 07:16:36;;;;;;;;;;;13.30;99.90;;;;;;5136065;27;19908;-76
2022/04/15 07:19:04;;;;;;;;;;;13.40;99.90;;;;;;5136495;27;19960;-76
2022/04/15 07:21:30;;;;;;;;;;;13.50;99.90;;;;;;5135774;27;20002;-76
2022/04/15 07:23:56;;;;;;;;;;;13.70;99.90;;;;;;5135857;27;19908;-76
2022/04/15 07:26:21;;;;;;;;;;;13.80;99.90;;;;;;5136378;27;20348;-76
2022/04/15 07:28:47;;;;;;;;;;;13.90;99.90;;;;;;5135655;27;19914;-76
2022/04/15 07:31:12;;;;;;;;;;;14.00;99.90;;;;;;5136483;27;20253;-76
2022/04/15 07:33:38;;;;;;;;;;;14.10;99.90;;;;;;5135521;27;19984;-76
2022/04/15 07:36:31;;;;;;;;;;;14.20;99.90;;;;;;5136019;27;19915;-76
2022/04/15 07:38:49;;;;;;;;;;;14.30;99.90;;;;;;5135230;27;19904;-75
2022/04/15 07:41:16;;;;;;;;;;;14.40;99.90;;;;;;5135861;27;19912;-75
2022/04/15 07:43:42;;;;;;;;;;;14.50;99.90;;;;;;5135764;27;20359;-76
2022/04/15 07:46:08;;;;;;;;;;;14.60;99.90;;;;;;5136097;27;19914;-76
2022/04/15 07:48:33;;;;;;;;;;;14.60;99.90;;;;;;5135634;27;19907;-76
2022/04/15 07:50:59;;;;;;;;;;;14.60;99.90;;;;;;5136218;27;19908;-76
2022/04/15 07:53:24;;;;;;;;;;;14.70;99.90;;;;;;5135871;27;19998;-74
2022/04/15 07:55:50;;;;;;;;;;;14.80;99.90;;;;;;5116345;27;19922;-75
2022/04/15 07:58:16;;;;;;;;;;;15.10;99.90;;;;;;5136053;27;20362;-75
2022/04/15 08:00:42;;;;;;;;;;;15.30;99.90;;;;;;5116903;27;19908;-74
2022/04/15 08:03:08;;;;;;;;;;;15.60;99.90;;;;;;5135229;27;19908;-76
2022/04/15 08:05:34;;;;;;;;;;;15.60;99.90;;;;;;5135271;27;19914;-75
2022/04/15 08:07:59;;;;;;;;;;;15.70;99.90;;;;;;5136058;27;19922;-75
2022/04/15 08:10:25;;;;;;;;;;;15.70;99.90;;;;;;5135596;27;19911;-76
2022/04/15 08:12:51;;;;;;;;;;;15.70;99.90;;;;;;5134949;27;19907;-76
2022/04/15 08:15:16;;;;;;;;;;;15.90;99.90;;;;;;5117102;27;19964;-76
2022/04/15 08:17:42;;;;;;;;;;;15.90;99.90;;;;;;5134899;27;19908;-76
2022/04/15 08:20:07;;;;;;;;;;;15.90;99.90;;;;;;5117174;27;19908;-76
2022/04/15 08:22:35;;;;;;;;;;;15.90;99.90;;;;;;5135053;27;19911;-76
2022/04/15 08:25:01;;;;;;;;;;;15.90;99.90;;;;;;5135522;27;19908;-76
2022/04/15 08:27:27;;;;;;;;;;;15.90;99.90;;;;;;5135059;27;20278;-77
2022/04/15 08:29:53;;;;;;;;;;;15.80;99.90;;;;;;5134572;27;19907;-77
2022/04/15 08:32:22;;;;;;;;;;;15.70;99.90;;;;;;5135509;27;20233;-77
2022/04/15 08:34:47;;;;;;;;;;;15.50;99.90;;;;;;5133150;27;19960;-76
2022/04/15 08:37:13;;;;;;;;;;;15.40;99.90;;;;;;5135458;27;20408;-75
2022/04/15 08:39:42;;;;;;;;;;;15.30;99.90;;;;;;5134612;27;19908;-76
2022/04/15 08:42:08;;;;;;;;;;;15.20;99.90;;;;;;5134979;27;19989;-75
2022/04/15 08:44:34;;;;;;;;;;;15.20;99.90;;;;;;5134690;27;19908;-76
2022/04/15 08:47:01;;;;;;;;;;;15.20;99.90;;;;;;5134727;27;20249;-76
2022/04/15 08:49:27;;;;;;;;;;;15.00;99.90;;;;;;5134812;27;19914;-76
2022/04/15 08:51:53;;;;;;;;;;;15.00;99.90;;;;;;5134075;27;19981;-76
2022/04/15 08:54:18;;;;;;;;;;;15.10;99.90;;;;;;5134508;27;20315;-76
2022/04/15 08:56:44;;;;;;;;;;;15.10;99.90;;;;;;5115518;27;19923;-76
2022/04/15 08:59:10;;;;;;;;;;;15.20;99.90;;;;;;5134447;27;19915;-76
2022/04/15 09:01:35;;;;;;;;;;;15.30;99.90;;;;;;5133650;27;20345;-76
2022/04/15 09:04:02;;;;;;;;;;;15.30;99.90;;;;;;5134270;27;19907;-75
2022/04/15 09:06:28;;;;;;;;;;;15.40;99.90;;;;;;5134383;27;19907;-74
2022/04/15 09:08:57;;;;;;;;;;;15.40;99.90;;;;;;5133689;27;19907;-75
2022/04/15 09:11:29;;;;;;;;;;;15.40;99.90;;;;;;5134213;27;19907;-76
2022/04/15 09:13:54;;;;;;;;;;;15.40;99.90;;;;;;5133693;27;20379;-76
2022/04/15 09:16:20;;;;;;;;;;;15.40;99.90;;;;;;5134831;27;19994;-75
2022/04/15 09:18:45;;;;;;;;;;;15.40;99.90;;;;;;5115094;27;20268;-75
2022/04/15 09:21:24;;;;;;;;;;;15.50;99.90;;;;;;5134230;27;19911;-75
2022/04/15 09:23:51;;;;;;;;;;;15.50;99.90;;;;;;5133412;27;19907;-75
2022/04/15 09:26:17;;;;;;;;;;;15.40;99.90;;;;;;5134032;27;19908;-75
2022/04/15 09:28:43;;;;;;;;;;;15.50;99.90;;;;;;5133637;27;19908;-75
2022/04/15 09:31:13;;;;;;;;;;;15.60;99.90;;;;;;5115347;27;20360;-76
2022/04/15 09:33:49;;;;;;;;;;;15.60;99.90;;;;;;5132669;27;19953;-75
2022/04/15 09:36:35;;;;;;;;;;;15.50;99.90;;;;;;5133853;27;19955;-75
2022/04/15 09:39:10;;;;;;;;;;;15.60;99.90;;;;;;5132749;27;20014;-76
2022/04/15 09:41:36;;;;;;;;;;;15.60;99.90;;;;;;5115614;27;20252;-76
2022/04/15 09:44:02;;;;;;;;;;;15.60;99.90;;;;;;5133746;27;20001;-76
2022/04/15 09:46:29;;;;;;;;;;;15.60;99.90;;;;;;5133212;27;19990;-76
2022/04/15 09:49:05;;;;;;;;;;;15.60;99.90;;;;;;5133215;27;19977;-76
2022/04/15 09:51:33;;;;;;;;;;;15.60;99.90;;;;;;5133668;27;20107;-76
2022/04/15 09:54:01;;;;;;;;;;;15.50;99.90;;;;;;5132776;27;19923;-76
2022/04/15 09:56:31;;;;;;;;;;;15.60;99.90;;;;;;5132289;27;20130;-76
2022/04/15 09:59:00;;;;;;;;;;;15.60;99.90;;;;;;5132976;27;20439;-76
2022/04/15 10:01:26;;;;;;;;;;;15.60;99.90;;;;;;5115000;28;19907;-76
2022/04/15 10:03:54;;;;;;;;;;;15.60;99.90;;;;;;5133347;28;19958;-76
2022/04/15 10:06:20;;;;;;;;;;;15.60;99.90;;;;;;5133408;28;19907;-76
2022/04/15 10:08:46;;;;;;;;;;;15.50;99.90;;;;;;5132912;28;19953;-76
2022/04/15 10:11:12;;;;;;;;;;;15.50;99.90;;;;;;5133644;28;19907;-76
2022/04/15 10:13:38;;;;;;;;;;;15.60;99.90;;;;;;5115059;28;19943;-76
2022/04/15 10:16:05;;;;;;;;;;;15.50;99.90;;;;;;5114563;28;19923;-76
2022/04/15 10:18:31;;;;;;;;;;;15.60;99.90;;;;;;5133436;28;19960;-76
2022/04/15 10:20:58;;;;;;;;;;;15.60;99.90;;;;;;5132815;28;19915;-77
2022/04/15 10:23:24;;;;;;;;;;;15.60;99.90;;;;;;5133316;28;19960;-74
2022/04/15 10:25:51;;;;;;;;;;;15.60;99.90;;;;;;5132886;28;20407;-76
2022/04/15 10:28:17;;;;;;;;;;;15.60;99.90;;;;;;5132937;27;19907;-75
2022/04/15 10:30:51;;;;;;;;;;;15.60;99.90;;;;;;5132340;28;19916;-75
2022/04/15 10:33:32;;;;;;;;;;;15.50;99.90;;;;;;5098021;28;19911;-75
2022/04/15 10:36:10;;;;;;;;;;;15.60;99.90;;;;;;5133275;28;19938;-74
2022/04/15 10:38:35;;;;;;;;;;;15.60;99.90;;;;;;5133329;28;19911;-75
2022/04/15 10:41:12;;;;;;;;;;;15.60;99.90;;;;;;5132689;28;20217;-75
2022/04/15 10:43:37;;;;;;;;;;;15.60;99.90;;;;;;5133328;28;19994;-75
2022/04/15 10:46:15;;;;;;;;;;;15.60;99.90;;;;;;5132405;28;20014;-75
2022/04/15 10:48:41;;;;;;;;;;;15.60;99.90;;;;;;5133265;28;20370;-75
2022/04/15 10:51:23;;;;;;;;;;;15.70;99.90;;;;;;5132795;28;19943;-76
2022/04/15 10:53:49;;;;;;;;;;;15.70;99.90;;;;;;5132269;28;19907;-77
2022/04/15 10:56:14;;;;;;;;;;;15.70;99.90;;;;;;5132698;28;19975;-76
2022/04/15 11:01:13;;;;;;;;;;;15.60;99.90;;;;;;5135452;27;19914;-75
2022/04/15 11:01:33;;;;;;;;;;;15.70;99.90;;;;;;5136257;27;19942;-75
2022/04/15 11:04:04;;;;;;;;;;;15.60;99.90;;;;;;5136192;27;20288;-76
2022/04/15 11:06:30;;;;;;;;;;;15.50;99.90;;;;;;5136742;27;19907;-75
2022/04/15 11:08:55;;;;;;;;;;;15.50;99.90;;;;;;5136137;27;19921;-75
2022/04/15 11:11:32;;;;;;;;;;;15.50;99.90;;;;;;5136442;27;19908;-76
2022/04/15 11:13:58;;;;;;;;;;;15.50;99.90;;;;;;5135695;27;19908;-76
2022/04/15 11:16:37;;;;;;;;;;;15.60;99.90;;;;;;5136376;27;19922;-75
2022/04/15 11:19:03;;;;;;;;;;;15.60;99.90;;;;;;5135664;27;19914;-76
2022/04/15 11:21:33;;;;;;;;;;;15.60;99.90;;;;;;5136586;27;20282;-76
2022/04/15 11:24:04;;;;;;;;;;;15.60;99.90;;;;;;5135926;27;19908;-75
2022/04/15 11:26:30;;;;;;;;;;;15.60;99.90;;;;;;5136509;27;19914;-75
2022/04/15 11:28:57;;;;;;;;;;;15.70;99.90;;;;;;5135676;27;20041;-75
2022/04/15 11:31:27;;;;;;;;;;;15.70;99.90;;;;;;5136232;27;19940;-76
2022/04/15 11:33:53;;;;;;;;;;;15.70;99.90;;;;;;5135510;27;20028;-75
2022/04/15 11:36:20;;;;;;;;;;;15.80;99.90;;;;;;5117733;27;20432;-75
2022/04/15 11:38:46;;;;;;;;;;;15.80;99.90;;;;;;5136133;27;19907;-76
2022/04/15 11:41:15;;;;;;;;;;;15.70;99.90;;;;;;5136005;27;20371;-76
2022/04/15 11:43:41;;;;;;;;;;;15.80;99.90;;;;;;5136189;27;19945;-75
2022/04/15 11:46:08;;;;;;;;;;;15.80;99.90;;;;;;5135659;27;19965;-76
2022/04/15 11:48:33;;;;;;;;;;;15.80;99.90;;;;;;5135562;27;19998;-76
2022/04/15 11:50:59;;;;;;;;;;;15.70;99.90;;;;;;5135124;27;19986;-76
2022/04/15 11:53:24;;;;;;;;;;;15.60;99.90;;;;;;5135654;27;19912;-76
2022/04/15 11:55:52;;;;;;;;;;;15.70;99.90;;;;;;5122227;27;20333;-77
2022/04/15 11:58:19;;;;;;;;;;;15.60;99.90;;;;;;5156260;27;20300;-76
2022/04/15 12:00:54;;;;;;;;;;;15.70;99.90;;;;;;5156128;27;19997;-76
2022/04/15 12:03:20;;;;;;;;;;;15.60;99.90;;;;;;5137325;27;19934;-76
2022/04/15 12:05:46;;;;;;;;;;;15.60;99.90;;;;;;5156326;27;19907;-76
2022/04/15 12:08:12;;;;;;;;;;;15.70;99.90;;;;;;5155250;27;19907;-76
2022/04/15 12:10:41;;;;;;;;;;;15.70;99.90;;;;;;5156420;27;20377;-76
2022/04/15 12:13:07;;;;;;;;;;;15.80;99.90;;;;;;5155787;27;19911;-76
2022/04/15 12:15:33;;;;;;;;;;;15.90;99.90;;;;;;5155815;27;20325;-76
2022/04/15 12:17:59;;;;;;;;;;;15.80;99.90;;;;;;5155768;27;19907;-77
2022/04/15 12:20:25;;;;;;;;;;;15.80;99.90;;;;;;5156178;27;19911;-76
2022/04/15 12:22:51;;;;;;;;;;;15.80;99.90;;;;;;5155323;27;19960;-78
2022/04/15 12:25:17;;;;;;;;;;;15.90;99.90;;;;;;5156046;27;19914;-76
2022/04/15 12:27:45;;;;;;;;;;;16.00;99.90;;;;;;5156099;27;19908;-76
2022/04/15 12:30:10;;;;;;;;;;;16.10;99.90;;;;;;5155046;27;20458;-77
2022/04/15 12:32:36;;;;;;;;;;;16.20;99.90;;;;;;5156262;27;19914;-76
2022/04/15 12:35:02;;;;;;;;;;;16.20;99.90;;;;;;5155300;27;20416;-77
2022/04/15 12:37:42;;;;;;;;;;;16.30;99.90;;;;;;5155547;27;19914;-76
2022/04/15 12:40:08;;;;;;;;;;;16.20;99.90;;;;;;5142010;27;20265;-76
2022/04/15 12:42:34;;;;;;;;;;;16.30;99.90;;;;;;5135005;27;19929;-77
2022/04/15 12:45:01;;;;;;;;;;;16.30;99.90;;;;;;5116055;27;20347;-76
2022/04/15 12:47:27;;;;;;;;;;;16.20;99.90;;;;;;5134979;27;19913;-77
2022/04/15 12:49:53;;;;;;;;;;;16.30;99.90;;;;;;5134083;27;20360;-76
2022/04/15 12:52:19;;;;;;;;;;;16.30;99.90;;;;;;5116455;27;20280;-77
2022/04/15 12:54:58;;;;;;;;;;;16.30;99.90;;;;;;5124067;27;19928;-76
2022/04/15 12:57:27;;;;;;;;;;;16.30;99.90;;;;;;5113916;28;19908;-76
2022/04/15 12:59:52;;;;;;;;;;;16.30;99.90;;;;;;5113430;28;19908;-77
2022/04/15 13:02:18;;;;;;;;;;;16.30;99.90;;;;;;5095716;28;19908;-76
2022/04/15 13:04:52;;;;;;;;;;;16.30;99.90;;;;;;5113692;28;20408;-77
2022/04/15 13:07:19;;;;;;;;;;;16.40;99.90;;;;;;5113393;28;19908;-76
2022/04/15 13:09:45;;;;;;;;;;;16.40;99.90;;;;;;5113408;28;20002;-76
2022/04/15 13:12:11;;;;;;;;;;;16.30;99.90;;;;;;5112875;28;19934;-76
2022/04/15 13:14:37;;;;;;;;;;;16.30;99.90;;;;;;5117388;28;19927;-76
2022/04/15 13:17:03;;;;;;;;;;;16.30;99.90;;;;;;5112733;28;19908;-76
2022/04/15 13:19:28;;;;;;;;;;;16.20;99.90;;;;;;5113649;28;19908;-77
2022/04/15 13:21:54;;;;;;;;;;;16.20;99.90;;;;;;5112710;28;20081;-77
2022/04/15 13:24:19;;;;;;;;;;;16.20;99.90;;;;;;5113360;28;20329;-77
2022/04/15 13:26:45;;;;;;;;;;;16.20;99.90;;;;;;5113599;28;19957;-77
2022/04/15 13:29:10;;;;;;;;;;;16.10;99.90;;;;;;5112694;28;20277;-77
2022/04/15 13:31:36;;;;;;;;;;;16.10;99.90;;;;;;5113029;28;19907;-77
2022/04/15 13:34:02;;;;;;;;;;;16.10;99.90;;;;;;5112580;28;19908;-77
2022/04/15 13:36:29;;;;;;;;;;;16.20;99.90;;;;;;5113558;28;19923;-77
2022/04/15 13:38:55;;;;;;;;;;;16.30;99.90;;;;;;5112719;28;19911;-76
2022/04/15 13:41:21;;;;;;;;;;;16.40;99.90;;;;;;5112629;28;19915;-77
2022/04/15 13:43:47;;;;;;;;;;;16.60;99.90;;;;;;5112567;28;19907;-77
2022/04/15 13:46:12;;;;;;;;;;;16.70;99.90;;;;;;5112247;28;20360;-77
2022/04/15 13:48:38;;;;;;;;;;;16.70;99.90;;;;;;5112766;28;20313;-77
2022/04/15 13:51:04;;;;;;;;;;;16.80;99.90;;;;;;5111670;28;19908;-77
2022/04/15 13:58:58;;;;;;;;;;;17.00;99.90;;;;;;5112027;28;19914;-76
2022/04/15 14:01:23;;;;;;;;;;;17.10;99.90;;;;;;5112554;28;19908;-77
2022/04/15 14:03:52;;;;;;;;;;;17.20;99.90;;;;;;5112474;28;20429;-77
2022/04/15 14:06:18;;;;;;;;;;;17.30;99.90;;;;;;5111856;28;19915;-77
2022/04/15 14:08:44;;;;;;;;;;;17.20;99.90;;;;;;5112385;28;19908;-76
2022/04/15 14:11:12;;;;;;;;;;;17.20;99.90;;;;;;5111819;28;19916;-77
2022/04/15 14:13:38;;;;;;;;;;;17.30;99.90;;;;;;5112431;28;20311;-77
2022/04/15 14:16:04;;;;;;;;;;;17.30;99.90;;;;;;5112190;28;19915;-76
2022/04/15 14:18:29;;;;;;;;;;;17.30;99.90;;;;;;5111235;28;19957;-75